Time;durP1;ratioP1;P1;durP2;ratioP2;P2;SDS_P1;SDS_P2;PMS_P1;PMS_P2;Temp;Humidity;BMP_temperature;BMP_pressure;BME280_temperature;BME280_humidity;BME280_pressure;Samples;Min_cycle;Max_cycle;Signal;HPM_P1;HPM_P2
2023/08/06 00:00:56;;;;;;;;;;;25.20;61.40;;;;;;5095908;28;19981;-55
2023/08/06 00:03:23;;;;;;;;;;;25.10;61.30;;;;;;5097996;28;19924;-55
2023/08/06 00:05:50;;;;;;;;;;;25.20;61.30;;;;;;5097868;28;20299;-54
2023/08/06 00:08:17;;;;;;;;;;;25.20;61.30;;;;;;5096569;28;19970;-55
2023/08/06 00:10:44;;;;;;;;;;;25.20;61.40;;;;;;5097307;28;19931;-52
2023/08/06 00:13:11;;;;;;;;;;;25.20;61.30;;;;;;5097151;28;19969;-52
2023/08/06 00:15:38;;;;;;;;;;;25.20;61.30;;;;;;5097292;28;20443;-51
2023/08/06 00:18:05;;;;;;;;;;;25.20;61.30;;;;;;5097181;28;20381;-55
2023/08/06 00:20:32;;;;;;;;;;;25.20;61.30;;;;;;5096222;28;19936;-53
2023/08/06 00:22:59;;;;;;;;;;;25.20;61.30;;;;;;5097672;28;19962;-54
2023/08/06 00:25:26;;;;;;;;;;;25.20;61.30;;;;;;5097552;28;19947;-53
2023/08/06 00:27:53;;;;;;;;;;;25.20;61.30;;;;;;5097184;28;20010;-55
2023/08/06 00:30:20;;;;;;;;;;;25.20;61.20;;;;;;5097357;28;19928;-52
2023/08/06 00:32:47;;;;;;;;;;;25.20;61.20;;;;;;5096619;28;19932;-52
2023/08/06 00:35:14;;;;;;;;;;;25.20;61.20;;;;;;5097536;28;20249;-53
2023/08/06 00:37:41;;;;;;;;;;;25.20;61.10;;;;;;5096902;28;19931;-50
2023/08/06 00:40:08;;;;;;;;;;;25.20;61.10;;;;;;5097114;28;19928;-53
2023/08/06 00:42:35;;;;;;;;;;;25.20;61.10;;;;;;5096765;28;20037;-52
2023/08/06 00:45:02;;;;;;;;;;;25.20;61.10;;;;;;5097154;28;19924;-55
2023/08/06 00:47:30;;;;;;;;;;;25.20;61.00;;;;;;5096823;28;20465;-50
2023/08/06 00:49:57;;;;;;;;;;;25.20;61.00;;;;;;5096682;28;19928;-52
2023/08/06 00:52:24;;;;;;;;;;;25.20;61.00;;;;;;5096413;28;19971;-51
2023/08/06 00:54:51;;;;;;;;;;;25.20;61.00;;;;;;5096995;28;19990;-49
2023/08/06 00:57:18;;;;;;;;;;;25.20;61.00;;;;;;5096876;28;19963;-55
2023/08/06 00:59:45;;;;;;;;;;;25.20;60.90;;;;;;5096690;28;19951;-54
2023/08/06 01:02:12;;;;;;;;;;;25.20;61.00;;;;;;5095985;28;19924;-55
2023/08/06 01:04:39;;;;;;;;;;;25.20;60.90;;;;;;5097064;28;19924;-55
2023/08/06 01:07:13;;;;;;;;;;;25.20;60.90;;;;;;5096815;28;20010;-49
2023/08/06 01:10:00;;;;;;;;;;;25.20;61.00;;;;;;5096305;28;19983;-54
2023/08/06 01:12:47;;;;;;;;;;;25.20;60.90;;;;;;5095663;28;20343;-54
2023/08/06 01:15:32;;;;;;;;;;;25.20;60.90;;;;;;5094542;28;19978;-53
2023/08/06 01:17:59;;;;;;;;;;;25.20;60.90;;;;;;5096065;28;19924;-55
2023/08/06 01:20:30;;;;;;;;;;;25.20;60.90;;;;;;5096478;28;19931;-55
2023/08/06 01:22:57;;;;;;;;;;;25.20;61.00;;;;;;5096466;28;19950;-52
2023/08/06 01:25:30;;;;;;;;;;;25.20;61.00;;;;;;5096015;28;19971;-55
2023/08/06 01:28:01;;;;;;;;;;;25.20;61.00;;;;;;5095940;28;20415;-53
2023/08/06 01:30:35;;;;;;;;;;;25.20;61.00;;;;;;5095837;28;19981;-51
2023/08/06 01:33:04;;;;;;;;;;;25.20;61.00;;;;;;5096196;28;19977;-55
2023/08/06 01:35:32;;;;;;;;;;;25.20;61.00;;;;;;5096107;28;20010;-54
2023/08/06 01:38:03;;;;;;;;;;;25.20;61.00;;;;;;5096034;28;20017;-53
2023/08/06 01:40:32;;;;;;;;;;;25.10;61.00;;;;;;5095187;28;19924;-55
2023/08/06 01:42:59;;;;;;;;;;;25.20;61.00;;;;;;5095990;28;20396;-55
2023/08/06 01:45:26;;;;;;;;;;;25.20;61.00;;;;;;5095695;28;20323;-57
2023/08/06 01:47:53;;;;;;;;;;;25.20;61.00;;;;;;5095839;28;19977;-54
2023/08/06 01:50:20;;;;;;;;;;;25.20;61.10;;;;;;5094368;28;19934;-55
2023/08/06 01:52:47;;;;;;;;;;;25.20;61.00;;;;;;5095300;28;20365;-55
2023/08/06 01:55:14;;;;;;;;;;;25.20;61.00;;;;;;5095526;28;20011;-54
2023/08/06 01:57:41;;;;;;;;;;;25.20;61.00;;;;;;5095434;28;20005;-54
2023/08/06 02:00:08;;;;;;;;;;;25.20;61.00;;;;;;5095242;28;20347;-55
2023/08/06 02:02:35;;;;;;;;;;;25.20;61.00;;;;;;5095405;28;20406;-55
2023/08/06 02:05:02;;;;;;;;;;;25.10;61.00;;;;;;5095600;28;19928;-54
2023/08/06 02:07:29;;;;;;;;;;;25.20;61.00;;;;;;5095640;28;20364;-55
2023/08/06 02:09:55;;;;;;;;;;;25.10;61.00;;;;;;5094466;28;20407;-54
2023/08/06 02:12:22;;;;;;;;;;;25.20;61.00;;;;;;5095044;28;19965;-54
2023/08/06 02:14:49;;;;;;;;;;;25.10;61.00;;;;;;5094795;28;19924;-54
2023/08/06 02:17:16;;;;;;;;;;;25.20;61.00;;;;;;5095018;28;19953;-54
2023/08/06 02:19:43;;;;;;;;;;;25.20;61.00;;;;;;5095165;28;19928;-53
2023/08/06 02:22:10;;;;;;;;;;;25.20;61.00;;;;;;5095088;28;19967;-53
2023/08/06 02:24:37;;;;;;;;;;;25.10;61.00;;;;;;5094893;28;20377;-53
2023/08/06 02:27:04;;;;;;;;;;;25.10;61.00;;;;;;5094867;28;19971;-54
2023/08/06 02:29:31;;;;;;;;;;;25.10;61.00;;;;;;5094896;28;19923;-55
2023/08/06 02:31:58;;;;;;;;;;;25.10;61.00;;;;;;5093453;28;19995;-53
2023/08/06 02:34:24;;;;;;;;;;;25.20;61.00;;;;;;5095017;28;19924;-55
2023/08/06 02:36:51;;;;;;;;;;;25.10;60.90;;;;;;5094521;28;19978;-55
2023/08/06 02:39:18;;;;;;;;;;;25.10;61.00;;;;;;5094516;28;20357;-54
2023/08/06 02:41:45;;;;;;;;;;;25.10;61.50;;;;;;5094124;28;19928;-55
2023/08/06 02:44:12;;;;;;;;;;;25.20;61.00;;;;;;5094848;28;20003;-53
2023/08/06 02:46:39;;;;;;;;;;;25.10;60.90;;;;;;5094507;28;20281;-53
2023/08/06 02:49:06;;;;;;;;;;;25.10;60.90;;;;;;5094645;28;19924;-54
2023/08/06 02:51:33;;;;;;;;;;;25.20;61.00;;;;;;5094500;28;19954;-54
2023/08/06 02:54:00;;;;;;;;;;;25.10;60.90;;;;;;5094849;28;20019;-50
2023/08/06 02:56:27;;;;;;;;;;;25.20;60.90;;;;;;5094533;28;19930;-55
2023/08/06 02:58:54;;;;;;;;;;;25.20;60.90;;;;;;5094080;28;20072;-55
2023/08/06 03:01:23;;;;;;;;;;;25.20;60.90;;;;;;5094595;28;19928;-51
2023/08/06 03:03:50;;;;;;;;;;;25.20;60.80;;;;;;5094235;28;19931;-55
2023/08/06 03:06:17;;;;;;;;;;;25.20;60.80;;;;;;5094399;28;20010;-55
2023/08/06 03:08:44;;;;;;;;;;;25.20;60.80;;;;;;5094139;28;20384;-54
2023/08/06 03:11:11;;;;;;;;;;;25.20;60.70;;;;;;5093758;28;19988;-53
2023/08/06 03:13:37;;;;;;;;;;;25.20;60.70;;;;;;5094452;28;20261;-53
2023/08/06 03:16:04;;;;;;;;;;;25.20;60.70;;;;;;5094561;28;20010;-53
2023/08/06 03:18:31;;;;;;;;;;;25.20;60.70;;;;;;5093759;28;19958;-56
2023/08/06 03:20:58;;;;;;;;;;;25.20;60.70;;;;;;5094013;28;20420;-53
2023/08/06 03:23:25;;;;;;;;;;;25.20;60.70;;;;;;5094339;28;19924;-55
2023/08/06 03:25:52;;;;;;;;;;;25.20;60.60;;;;;;5093254;28;19950;-54
2023/08/06 03:28:19;;;;;;;;;;;25.20;60.60;;;;;;5094255;28;20034;-56
2023/08/06 03:30:46;;;;;;;;;;;25.20;60.60;;;;;;5093252;28;19928;-55
2023/08/06 03:33:13;;;;;;;;;;;25.20;60.60;;;;;;5094193;28;20373;-55
2023/08/06 03:35:40;;;;;;;;;;;25.20;60.60;;;;;;5094080;28;19924;-53
2023/08/06 03:38:07;;;;;;;;;;;25.20;60.60;;;;;;5093845;28;19924;-55
2023/08/06 03:40:35;;;;;;;;;;;25.20;60.60;;;;;;5093406;28;19963;-53
2023/08/06 03:43:02;;;;;;;;;;;25.20;60.60;;;;;;5094084;28;19931;-55
2023/08/06 03:45:28;;;;;;;;;;;25.20;60.60;;;;;;5094012;28;20019;-53
2023/08/06 03:47:55;;;;;;;;;;;25.20;60.60;;;;;;5093896;28;20340;-53
2023/08/06 03:50:22;;;;;;;;;;;25.20;60.60;;;;;;5094162;28;19924;-53
2023/08/06 03:52:49;;;;;;;;;;;25.20;60.60;;;;;;5092901;28;20392;-55
2023/08/06 03:55:16;;;;;;;;;;;25.20;60.60;;;;;;5093872;28;20014;-54
2023/08/06 03:57:43;;;;;;;;;;;25.20;60.60;;;;;;5093400;28;19978;-55
2023/08/06 04:00:10;;;;;;;;;;;25.20;60.60;;;;;;5093397;28;20380;-55
2023/08/06 04:02:37;;;;;;;;;;;25.20;60.60;;;;;;5092816;28;19993;-53
2023/08/06 04:05:04;;;;;;;;;;;25.20;60.60;;;;;;5093351;28;20023;-54
2023/08/06 04:07:31;;;;;;;;;;;25.20;60.60;;;;;;5093315;28;19924;-55
2023/08/06 04:09:59;;;;;;;;;;;25.20;60.60;;;;;;5093260;28;19925;-54
2023/08/06 04:12:26;;;;;;;;;;;25.20;60.60;;;;;;5092916;28;20400;-56
2023/08/06 04:14:54;;;;;;;;;;;25.20;60.50;;;;;;5093407;28;19924;-55
2023/08/06 04:17:21;;;;;;;;;;;25.20;60.50;;;;;;5093279;28;20010;-55
2023/08/06 04:19:52;;;;;;;;;;;25.20;60.50;;;;;;5093045;28;19969;-54
2023/08/06 04:22:19;;;;;;;;;;;25.20;60.50;;;;;;5091471;28;19955;-55
2023/08/06 04:24:46;;;;;;;;;;;25.20;60.40;;;;;;5093481;28;19971;-55
2023/08/06 04:27:13;;;;;;;;;;;25.30;60.50;;;;;;5093331;28;19981;-52
2023/08/06 04:29:40;;;;;;;;;;;25.30;60.50;;;;;;5093180;28;19975;-54
2023/08/06 04:32:08;;;;;;;;;;;25.30;60.40;;;;;;5092606;28;20026;-55
2023/08/06 04:34:36;;;;;;;;;;;25.30;60.40;;;;;;5093178;28;19927;-55
2023/08/06 04:37:03;;;;;;;;;;;25.20;60.30;;;;;;5094805;28;19949;-54
2023/08/06 04:39:30;;;;;;;;;;;25.20;60.60;;;;;;5097014;28;20006;-50
2023/08/06 04:41:57;;;;;;;;;;;25.10;60.70;;;;;;5096772;28;19924;-55
2023/08/06 04:44:24;;;;;;;;;;;24.90;60.50;;;;;;5096943;28;20388;-54
2023/08/06 04:46:51;;;;;;;;;;;24.70;58.70;;;;;;5096844;28;20026;-54
2023/08/06 04:49:20;;;;;;;;;;;24.40;56.80;;;;;;5096767;28;19970;-53
2023/08/06 04:51:47;;;;;;;;;;;24.20;55.10;;;;;;5095185;28;20014;-55
2023/08/06 04:54:14;;;;;;;;;;;23.90;53.50;;;;;;5096873;28;19968;-53
2023/08/06 04:56:41;;;;;;;;;;;23.60;52.60;;;;;;5097049;28;19924;-54
2023/08/06 04:59:08;;;;;;;;;;;23.30;51.50;;;;;;5092205;28;19924;-55
2023/08/06 05:01:35;;;;;;;;;;;23.00;51.10;;;;;;5082709;28;19977;-53
2023/08/06 05:04:02;;;;;;;;;;;22.70;50.80;;;;;;5077121;28;19932;-54
2023/08/06 05:06:29;;;;;;;;;;;22.40;50.30;;;;;;5088044;28;19924;-54
2023/08/06 05:08:56;;;;;;;;;;;22.20;50.70;;;;;;5079516;28;19924;-52
2023/08/06 05:11:24;;;;;;;;;;;21.90;50.60;;;;;;5087119;28;19974;-54
2023/08/06 05:13:51;;;;;;;;;;;21.60;50.10;;;;;;5078569;28;20035;-52
2023/08/06 05:16:17;;;;;;;;;;;21.40;50.90;;;;;;5080940;28;19939;-54
2023/08/06 05:18:44;;;;;;;;;;;21.20;51.50;;;;;;5075010;28;19925;-54
2023/08/06 05:21:11;;;;;;;;;;;21.00;52.10;;;;;;5076029;28;20273;-54
2023/08/06 05:23:38;;;;;;;;;;;20.80;53.00;;;;;;5076046;28;19967;-53
2023/08/06 05:26:05;;;;;;;;;;;20.70;52.40;;;;;;5075866;28;19925;-54
2023/08/06 05:28:32;;;;;;;;;;;20.60;53.80;;;;;;5075785;28;19956;-54
2023/08/06 05:31:02;;;;;;;;;;;20.40;53.50;;;;;;5075485;28;19947;-54
2023/08/06 05:33:29;;;;;;;;;;;20.30;54.90;;;;;;5075983;28;20011;-55
2023/08/06 05:35:56;;;;;;;;;;;20.20;53.40;;;;;;5075674;28;19979;-54
2023/08/06 05:38:23;;;;;;;;;;;20.10;53.30;;;;;;5091630;28;19928;-54
2023/08/06 05:40:50;;;;;;;;;;;20.00;53.20;;;;;;5095435;28;20281;-54
2023/08/06 05:43:17;;;;;;;;;;;19.90;53.90;;;;;;5096080;28;20380;-53
2023/08/06 05:45:46;;;;;;;;;;;19.80;53.60;;;;;;5094859;28;19924;-55
2023/08/06 05:48:13;;;;;;;;;;;19.70;53.30;;;;;;5095263;28;19927;-52
2023/08/06 05:50:39;;;;;;;;;;;19.70;53.90;;;;;;5094579;28;19924;-55
2023/08/06 05:53:07;;;;;;;;;;;19.60;54.60;;;;;;5095462;28;19978;-54
2023/08/06 05:55:34;;;;;;;;;;;19.60;54.70;;;;;;5094866;28;19932;-53
2023/08/06 05:58:01;;;;;;;;;;;19.60;53.70;;;;;;5095727;28;19924;-54
2023/08/06 06:00:28;;;;;;;;;;;19.50;53.40;;;;;;5095422;28;19924;-54
2023/08/06 06:02:55;;;;;;;;;;;19.40;54.40;;;;;;5095274;28;20395;-55
2023/08/06 06:05:22;;;;;;;;;;;19.30;53.50;;;;;;5095665;28;19924;-53
2023/08/06 06:07:49;;;;;;;;;;;19.20;56.80;;;;;;5095612;28;20330;-54
2023/08/06 06:10:16;;;;;;;;;;;19.10;57.60;;;;;;5095209;28;19924;-52
2023/08/06 06:12:43;;;;;;;;;;;19.00;58.20;;;;;;5094928;28;19971;-54
2023/08/06 06:15:09;;;;;;;;;;;18.90;57.20;;;;;;5095195;28;19924;-56
2023/08/06 06:17:36;;;;;;;;;;;18.90;58.30;;;;;;5094983;28;19969;-55
2023/08/06 06:20:04;;;;;;;;;;;18.80;58.20;;;;;;5094835;28;19928;-55
2023/08/06 06:22:31;;;;;;;;;;;18.80;59.20;;;;;;5094814;28;20390;-54
2023/08/06 06:24:58;;;;;;;;;;;18.70;58.60;;;;;;5089182;28;19932;-55
2023/08/06 06:27:25;;;;;;;;;;;18.60;60.20;;;;;;5079135;28;19974;-54
2023/08/06 06:29:54;;;;;;;;;;;18.60;59.90;;;;;;5092371;28;20365;-54
2023/08/06 06:32:21;;;;;;;;;;;18.60;58.90;;;;;;5094362;28;19931;-54
2023/08/06 06:34:48;;;;;;;;;;;18.60;59.10;;;;;;5095044;28;19924;-54
2023/08/06 06:37:15;;;;;;;;;;;18.60;60.90;;;;;;5095187;28;19924;-53
2023/08/06 06:39:42;;;;;;;;;;;18.60;60.30;;;;;;5093373;28;19924;-54
2023/08/06 06:42:09;;;;;;;;;;;18.60;60.00;;;;;;5094698;28;19924;-54
2023/08/06 06:44:36;;;;;;;;;;;18.50;59.10;;;;;;5095006;28;19928;-53
2023/08/06 06:47:03;;;;;;;;;;;18.60;59.00;;;;;;5094756;28;19931;-54
2023/08/06 06:49:30;;;;;;;;;;;18.50;60.40;;;;;;5094525;28;19924;-54
2023/08/06 06:51:57;;;;;;;;;;;18.50;60.30;;;;;;5094527;28;19924;-53
2023/08/06 06:54:24;;;;;;;;;;;18.50;59.90;;;;;;5094534;28;20388;-54
2023/08/06 06:56:51;;;;;;;;;;;18.50;60.90;;;;;;5094782;28;19999;-52
2023/08/06 06:59:18;;;;;;;;;;;18.50;62.00;;;;;;5094105;28;20426;-55
2023/08/06 07:01:45;;;;;;;;;;;18.50;60.80;;;;;;5093624;28;19924;-52
2023/08/06 07:04:12;;;;;;;;;;;18.50;60.00;;;;;;5094559;28;19963;-52
2023/08/06 07:06:38;;;;;;;;;;;18.50;60.90;;;;;;5094613;28;19924;-55
2023/08/06 07:09:05;;;;;;;;;;;18.50;60.00;;;;;;5094021;28;20435;-53
2023/08/06 07:11:32;;;;;;;;;;;18.60;60.10;;;;;;5093623;28;19928;-52
2023/08/06 07:13:59;;;;;;;;;;;18.60;60.70;;;;;;5094391;28;19982;-55
2023/08/06 07:16:26;;;;;;;;;;;18.60;60.40;;;;;;5094269;28;19974;-54
2023/08/06 07:18:53;;;;;;;;;;;18.60;59.30;;;;;;5092973;28;19989;-50
2023/08/06 07:21:21;;;;;;;;;;;18.60;56.70;;;;;;5093372;28;20428;-55
2023/08/06 07:23:49;;;;;;;;;;;18.70;58.30;;;;;;5094312;28;20388;-55
2023/08/06 07:26:17;;;;;;;;;;;18.70;58.60;;;;;;5093998;28;20015;-53
2023/08/06 07:28:44;;;;;;;;;;;18.70;55.40;;;;;;5093875;28;20404;-53
2023/08/06 07:31:11;;;;;;;;;;;18.70;55.30;;;;;;5094224;28;19924;-53
2023/08/06 07:33:39;;;;;;;;;;;18.80;55.20;;;;;;5093776;28;19928;-53
2023/08/06 07:36:10;;;;;;;;;;;18.80;56.20;;;;;;5094037;28;19931;-55
2023/08/06 07:38:37;;;;;;;;;;;18.80;58.20;;;;;;5093806;28;20027;-55
2023/08/06 07:41:05;;;;;;;;;;;18.70;56.60;;;;;;5092967;28;19928;-54
2023/08/06 07:43:32;;;;;;;;;;;18.70;57.00;;;;;;5093826;28;19924;-54
2023/08/06 07:46:00;;;;;;;;;;;18.70;58.60;;;;;;5093953;28;20392;-54
2023/08/06 07:48:27;;;;;;;;;;;18.80;55.90;;;;;;5093947;28;19928;-55
2023/08/06 07:50:54;;;;;;;;;;;18.80;56.60;;;;;;5092451;28;19928;-55
2023/08/06 07:53:22;;;;;;;;;;;18.80;54.10;;;;;;5093871;28;19930;-54
2023/08/06 07:55:50;;;;;;;;;;;18.90;58.90;;;;;;5093711;28;20023;-52
2023/08/06 07:58:16;;;;;;;;;;;18.90;56.00;;;;;;5093837;28;19931;-55
2023/08/06 08:00:45;;;;;;;;;;;19.00;54.60;;;;;;5093139;28;19974;-55
2023/08/06 08:03:13;;;;;;;;;;;19.00;54.30;;;;;;5093931;28;19924;-56
2023/08/06 08:05:40;;;;;;;;;;;19.00;54.20;;;;;;5093919;28;19950;-53
2023/08/06 08:08:07;;;;;;;;;;;19.00;54.40;;;;;;5093714;28;19924;-57
2023/08/06 08:10:35;;;;;;;;;;;19.00;55.00;;;;;;5092962;28;19973;-52
2023/08/06 08:13:02;;;;;;;;;;;19.00;55.70;;;;;;5096337;28;20333;-51
2023/08/06 08:15:29;;;;;;;;;;;19.00;57.40;;;;;;5097678;28;19959;-56
2023/08/06 08:17:56;;;;;;;;;;;19.00;55.20;;;;;;5097916;28;20333;-50
2023/08/06 08:20:23;;;;;;;;;;;19.10;55.40;;;;;;5097157;28;19994;-51
2023/08/06 08:22:50;;;;;;;;;;;19.10;55.10;;;;;;5097610;28;20287;-51
2023/08/06 08:25:17;;;;;;;;;;;19.10;56.50;;;;;;5097521;28;19963;-51
2023/08/06 08:27:44;;;;;;;;;;;19.10;57.00;;;;;;5097494;28;19928;-50
2023/08/06 08:30:11;;;;;;;;;;;19.20;57.40;;;;;;5097506;28;19924;-51
2023/08/06 08:32:38;;;;;;;;;;;19.10;57.20;;;;;;5096807;28;20019;-52
2023/08/06 08:35:05;;;;;;;;;;;19.10;57.50;;;;;;5097064;28;19924;-52
2023/08/06 08:37:32;;;;;;;;;;;19.10;58.30;;;;;;5097364;28;19967;-55
2023/08/06 08:40:00;;;;;;;;;;;19.10;58.20;;;;;;5096930;28;19954;-51
2023/08/06 08:42:27;;;;;;;;;;;19.10;57.20;;;;;;5097302;28;19924;-52
2023/08/06 08:44:55;;;;;;;;;;;19.10;56.70;;;;;;5096887;28;20376;-52
2023/08/06 08:47:22;;;;;;;;;;;19.10;54.80;;;;;;5097071;28;19983;-51
2023/08/06 08:49:49;;;;;;;;;;;19.10;57.30;;;;;;5097244;28;19924;-54
2023/08/06 08:52:17;;;;;;;;;;;19.10;55.60;;;;;;5096457;28;20003;-52
2023/08/06 08:54:44;;;;;;;;;;;19.10;56.50;;;;;;5096963;28;20449;-52
2023/08/06 08:57:11;;;;;;;;;;;19.10;55.70;;;;;;5096740;28;20404;-49
2023/08/06 08:59:38;;;;;;;;;;;19.10;57.20;;;;;;5095616;28;20003;-50
2023/08/06 09:02:05;;;;;;;;;;;19.10;56.10;;;;;;5096483;28;19975;-49
2023/08/06 09:04:32;;;;;;;;;;;19.10;55.00;;;;;;5096514;28;19925;-49
2023/08/06 09:07:01;;;;;;;;;;;19.10;54.80;;;;;;5096771;28;19924;-52
2023/08/06 09:09:33;;;;;;;;;;;19.10;55.30;;;;;;5095990;28;19967;-50
2023/08/06 09:12:02;;;;;;;;;;;19.10;55.30;;;;;;5094917;28;19978;-51
2023/08/06 09:14:29;;;;;;;;;;;19.10;54.30;;;;;;5095736;28;19977;-51
2023/08/06 09:16:57;;;;;;;;;;;19.10;54.90;;;;;;5096633;28;19967;-53
2023/08/06 09:19:24;;;;;;;;;;;19.10;54.70;;;;;;5096405;28;19928;-51
2023/08/06 09:21:51;;;;;;;;;;;19.20;56.30;;;;;;5095894;28;19925;-49
2023/08/06 09:24:19;;;;;;;;;;;19.20;56.20;;;;;;5095097;28;19924;-53
2023/08/06 09:26:46;;;;;;;;;;;19.20;55.80;;;;;;5085296;28;19928;-50
2023/08/06 09:29:13;;;;;;;;;;;19.20;54.50;;;;;;5075669;28;19928;-52
2023/08/06 09:31:47;;;;;;;;;;;19.30;55.30;;;;;;5075547;28;20019;-53
2023/08/06 09:34:18;;;;;;;;;;;19.30;58.50;;;;;;5091304;28;20144;-54
2023/08/06 09:36:46;;;;;;;;;;;19.30;57.70;;;;;;5078548;28;19978;-52
2023/08/06 09:39:15;;;;;;;;;;;19.20;57.20;;;;;;5095898;28;19985;-55
2023/08/06 09:41:42;;;;;;;;;;;19.20;57.60;;;;;;5094300;28;19930;-53
2023/08/06 09:44:19;;;;;;;;;;;19.20;55.60;;;;;;5095975;28;20019;-53
2023/08/06 09:46:50;;;;;;;;;;;19.20;54.60;;;;;;5095131;28;20022;-55
2023/08/06 09:49:27;;;;;;;;;;;19.30;54.90;;;;;;5095825;28;19924;-54
2023/08/06 09:51:59;;;;;;;;;;;19.30;55.80;;;;;;5095068;28;19982;-56
2023/08/06 09:54:27;;;;;;;;;;;19.30;54.50;;;;;;5095455;28;19924;-54
2023/08/06 09:56:54;;;;;;;;;;;19.20;54.10;;;;;;5075698;28;19925;-54
2023/08/06 09:59:25;;;;;;;;;;;19.20;54.40;;;;;;5075288;28;19924;-55
2023/08/06 10:01:54;;;;;;;;;;;19.20;54.10;;;;;;5074745;28;20026;-53
2023/08/06 10:04:21;;;;;;;;;;;19.10;56.10;;;;;;5074233;28;19946;-55
2023/08/06 10:06:52;;;;;;;;;;;19.10;55.60;;;;;;5094054;28;19924;-53
2023/08/06 10:09:20;;;;;;;;;;;19.00;55.20;;;;;;5094566;28;19931;-54
2023/08/06 10:11:49;;;;;;;;;;;19.00;54.20;;;;;;5094210;28;20376;-58
2023/08/06 10:14:20;;;;;;;;;;;19.00;54.20;;;;;;5095094;28;19931;-55
2023/08/06 10:16:48;;;;;;;;;;;18.90;54.60;;;;;;5076661;28;20023;-55
2023/08/06 10:19:16;;;;;;;;;;;18.90;54.30;;;;;;5074757;28;19928;-53
2023/08/06 10:22:04;;;;;;;;;;;19.00;55.70;;;;;;5093444;28;20383;-53
2023/08/06 10:24:45;;;;;;;;;;;19.00;55.10;;;;;;5095003;28;19924;-53
2023/08/06 10:27:12;;;;;;;;;;;19.00;53.80;;;;;;5074827;28;19924;-55
2023/08/06 10:29:39;;;;;;;;;;;19.00;55.70;;;;;;5074541;28;20018;-52
2023/08/06 10:32:06;;;;;;;;;;;19.00;54.10;;;;;;5074452;28;19963;-51
2023/08/06 10:34:52;;;;;;;;;;;19.00;53.90;;;;;;5074404;28;19970;-55
2023/08/06 10:37:20;;;;;;;;;;;19.10;54.40;;;;;;5074681;28;20023;-55
2023/08/06 10:39:50;;;;;;;;;;;19.10;54.30;;;;;;5089533;28;19928;-54
2023/08/06 10:42:21;;;;;;;;;;;19.10;53.80;;;;;;5094238;28;19928;-55
2023/08/06 10:45:08;;;;;;;;;;;19.10;53.80;;;;;;5094084;28;19963;-56
2023/08/06 10:47:39;;;;;;;;;;;19.10;56.40;;;;;;5094401;28;20296;-53
2023/08/06 10:50:16;;;;;;;;;;;19.10;54.20;;;;;;5094437;28;20426;-55
2023/08/06 10:52:44;;;;;;;;;;;19.10;53.50;;;;;;5094881;28;19924;-53
2023/08/06 10:55:11;;;;;;;;;;;19.10;53.40;;;;;;5090836;28;19955;-51
2023/08/06 10:57:40;;;;;;;;;;;19.10;55.00;;;;;;5074338;28;20343;-53
2023/08/06 11:00:08;;;;;;;;;;;19.10;55.40;;;;;;5074239;28;20051;-56
2023/08/06 11:02:42;;;;;;;;;;;19.10;55.10;;;;;;5074007;28;20015;-53
2023/08/06 11:05:10;;;;;;;;;;;19.10;56.30;;;;;;5076963;28;19931;-51
2023/08/06 11:07:37;;;;;;;;;;;19.10;54.30;;;;;;5094164;28;20364;-54
2023/08/06 11:10:05;;;;;;;;;;;19.10;55.20;;;;;;5091643;28;19924;-54
2023/08/06 11:12:32;;;;;;;;;;;19.10;55.30;;;;;;5075770;28;19925;-54
2023/08/06 11:15:00;;;;;;;;;;;19.10;56.10;;;;;;5088897;28;20016;-51
2023/08/06 11:17:29;;;;;;;;;;;19.10;54.00;;;;;;5073416;28;20147;-56
2023/08/06 11:19:59;;;;;;;;;;;19.00;54.70;;;;;;5073652;28;19924;-53
2023/08/06 11:22:26;;;;;;;;;;;19.00;54.40;;;;;;5088495;28;20288;-54
2023/08/06 11:24:53;;;;;;;;;;;19.00;54.20;;;;;;5083978;28;19978;-51
2023/08/06 11:27:20;;;;;;;;;;;18.90;55.40;;;;;;5073706;28;19964;-56
2023/08/06 11:29:47;;;;;;;;;;;18.90;55.50;;;;;;5078556;28;19970;-51
2023/08/06 11:32:14;;;;;;;;;;;18.90;55.70;;;;;;5087066;28;19975;-56
2023/08/06 11:34:43;;;;;;;;;;;18.90;54.80;;;;;;5093688;28;20399;-51
2023/08/06 11:37:11;;;;;;;;;;;18.90;55.50;;;;;;5093880;28;19956;-55
2023/08/06 11:39:38;;;;;;;;;;;18.90;55.00;;;;;;5093807;28;19966;-54
2023/08/06 11:42:06;;;;;;;;;;;18.90;54.50;;;;;;5093491;28;19959;-52
2023/08/06 11:44:35;;;;;;;;;;;18.90;55.60;;;;;;5093688;28;19931;-54
2023/08/06 11:47:04;;;;;;;;;;;18.90;57.20;;;;;;5093180;28;20006;-54
2023/08/06 11:49:45;;;;;;;;;;;18.90;55.80;;;;;;5093448;28;20376;-55
2023/08/06 11:52:18;;;;;;;;;;;18.90;56.80;;;;;;5093454;28;19939;-51
2023/08/06 11:55:10;;;;;;;;;;;18.90;58.10;;;;;;5092306;28;19928;-51
2023/08/06 11:57:39;;;;;;;;;;;18.90;54.40;;;;;;5093898;28;20019;-54
2023/08/06 12:00:11;;;;;;;;;;;18.90;54.40;;;;;;5093522;28;19924;-55
2023/08/06 12:02:39;;;;;;;;;;;18.90;55.40;;;;;;5093485;28;19924;-51
2023/08/06 12:05:16;;;;;;;;;;;19.00;56.60;;;;;;5093627;28;19935;-50
2023/08/06 12:07:47;;;;;;;;;;;19.00;56.00;;;;;;5093842;28;19924;-52
2023/08/06 12:10:15;;;;;;;;;;;19.00;55.20;;;;;;5093704;28;20027;-51
2023/08/06 12:12:42;;;;;;;;;;;19.00;55.80;;;;;;5093544;28;19946;-55
2023/08/06 12:15:09;;;;;;;;;;;19.00;56.70;;;;;;5093669;28;19924;-51
2023/08/06 12:17:36;;;;;;;;;;;19.00;59.50;;;;;;5093540;28;19970;-51
2023/08/06 12:20:06;;;;;;;;;;;19.00;55.50;;;;;;5093371;28;19946;-53
2023/08/06 12:22:38;;;;;;;;;;;19.00;56.70;;;;;;5093137;28;19931;-55
2023/08/06 12:25:10;;;;;;;;;;;19.00;54.20;;;;;;5093504;28;20288;-55
2023/08/06 12:27:38;;;;;;;;;;;19.00;55.50;;;;;;5093694;28;20327;-56
2023/08/06 12:30:05;;;;;;;;;;;19.00;55.10;;;;;;5093362;28;20384;-56
2023/08/06 12:32:33;;;;;;;;;;;19.00;54.70;;;;;;5093621;28;19924;-56
2023/08/06 12:35:01;;;;;;;;;;;19.00;55.30;;;;;;5093111;28;19931;-55
2023/08/06 12:37:28;;;;;;;;;;;19.00;54.70;;;;;;5093540;28;19928;-53
2023/08/06 12:39:55;;;;;;;;;;;19.00;54.60;;;;;;5093108;28;20081;-56
2023/08/06 12:42:22;;;;;;;;;;;19.00;55.50;;;;;;5093337;28;19931;-52
2023/08/06 12:44:49;;;;;;;;;;;19.00;56.00;;;;;;5093099;28;19924;-55
2023/08/06 12:47:16;;;;;;;;;;;18.90;54.20;;;;;;5092250;28;19971;-54
2023/08/06 12:49:43;;;;;;;;;;;18.90;53.80;;;;;;5093053;28;19924;-54
2023/08/06 12:52:12;;;;;;;;;;;18.90;54.40;;;;;;5092396;28;20331;-56
2023/08/06 12:54:39;;;;;;;;;;;18.90;55.00;;;;;;5093342;28;20006;-52
2023/08/06 12:57:06;;;;;;;;;;;18.90;53.20;;;;;;5085646;28;20019;-54
2023/08/06 12:59:33;;;;;;;;;;;18.80;57.40;;;;;;5083380;28;20342;-56
2023/08/06 13:02:00;;;;;;;;;;;18.80;55.70;;;;;;5079614;28;19959;-52
2023/08/06 13:04:27;;;;;;;;;;;18.80;55.40;;;;;;5087804;28;20296;-53
2023/08/06 13:06:55;;;;;;;;;;;18.80;55.00;;;;;;5074427;28;19932;-53
2023/08/06 13:09:22;;;;;;;;;;;18.80;55.40;;;;;;5076889;28;20458;-54
2023/08/06 13:11:50;;;;;;;;;;;18.90;54.40;;;;;;5079089;28;19967;-51
2023/08/06 13:14:17;;;;;;;;;;;18.80;55.10;;;;;;5095831;28;20429;-57
2023/08/06 13:16:44;;;;;;;;;;;18.80;54.60;;;;;;5091731;28;19994;-52
2023/08/06 13:19:13;;;;;;;;;;;18.80;55.00;;;;;;5089522;28;20015;-52
2023/08/06 13:22:01;;;;;;;;;;;18.80;55.50;;;;;;5082911;28;19928;-52
2023/08/06 13:24:28;;;;;;;;;;;18.80;54.70;;;;;;5092424;28;19924;-55
2023/08/06 13:26:55;;;;;;;;;;;18.80;57.50;;;;;;5080478;28;19925;-53
2023/08/06 13:29:22;;;;;;;;;;;18.80;56.20;;;;;;5085693;28;20010;-54
2023/08/06 13:31:49;;;;;;;;;;;18.80;56.60;;;;;;5083330;28;19960;-54
2023/08/06 13:34:16;;;;;;;;;;;18.80;59.40;;;;;;5081922;28;19928;-55
2023/08/06 13:36:43;;;;;;;;;;;18.80;59.20;;;;;;5082893;28;20388;-55
2023/08/06 13:39:11;;;;;;;;;;;18.80;58.80;;;;;;5079689;28;20400;-52
2023/08/06 13:41:39;;;;;;;;;;;18.70;59.40;;;;;;5087314;28;20020;-53
2023/08/06 13:44:06;;;;;;;;;;;18.70;60.30;;;;;;5081917;28;19970;-56
2023/08/06 13:46:33;;;;;;;;;;;18.70;58.60;;;;;;5087772;28;19925;-54
2023/08/06 13:49:00;;;;;;;;;;;18.70;60.00;;;;;;5085334;28;19956;-50
2023/08/06 13:51:28;;;;;;;;;;;18.70;60.90;;;;;;5082432;28;20041;-56
2023/08/06 13:53:57;;;;;;;;;;;18.70;59.90;;;;;;5074981;28;19925;-52
2023/08/06 13:56:24;;;;;;;;;;;18.70;59.20;;;;;;5076894;28;20289;-54
2023/08/06 13:58:51;;;;;;;;;;;18.70;59.20;;;;;;5089935;28;19964;-55
2023/08/06 14:01:18;;;;;;;;;;;18.70;59.40;;;;;;5088352;28;20014;-50
2023/08/06 14:03:45;;;;;;;;;;;18.70;60.90;;;;;;5077407;28;20356;-52
2023/08/06 14:06:12;;;;;;;;;;;18.80;65.50;;;;;;5081612;28;19971;-51
2023/08/06 14:08:39;;;;;;;;;;;19.10;72.30;;;;;;5075079;28;19963;-53
2023/08/06 14:11:07;;;;;;;;;;;19.50;76.90;;;;;;5081748;28;20015;-55
2023/08/06 14:13:34;;;;;;;;;;;19.90;78.00;;;;;;5076463;28;19972;-55
2023/08/06 14:16:00;;;;;;;;;;;20.30;78.80;;;;;;5076643;28;19952;-54
2023/08/06 14:18:28;;;;;;;;;;;20.70;78.20;;;;;;5083781;28;19925;-54
2023/08/06 14:20:55;;;;;;;;;;;21.00;77.90;;;;;;5074111;28;20010;-53